Time;durP1;ratioP1;P1;durP2;ratioP2;P2;SDS_P1;SDS_P2;PMS_P1;PMS_P2;Temp;Humidity;BMP_temperature;BMP_pressure;BME280_temperature;BME280_humidity;BME280_pressure;Samples;Min_cycle;Max_cycle;Signal;HPM_P1;HPM_P2
2022/08/21 00:02:19;;;;;;;127.30;106.53;;;15.20;99.90;;;;;;5107617;28;20126;-69
2022/08/21 00:04:45;;;;;;;111.82;95.43;;;15.20;99.90;;;;;;5109314;28;20050;-65
2022/08/21 00:07:11;;;;;;;120.38;101.43;;;15.20;99.90;;;;;;5107847;28;20071;-65
2022/08/21 00:09:37;;;;;;;130.93;110.65;;;15.20;99.90;;;;;;5122629;27;20402;-67
2022/08/21 00:12:03;;;;;;;123.47;106.22;;;15.20;99.90;;;;;;5121679;27;20130;-69
2022/08/21 00:14:29;;;;;;;129.88;113.70;;;15.10;99.90;;;;;;5114123;28;20043;-68
2022/08/21 00:16:55;;;;;;;121.72;107.60;;;15.10;99.90;;;;;;5122503;27;20378;-66
2022/08/21 00:19:24;;;;;;;117.82;98.38;;;15.10;99.90;;;;;;5113696;28;20042;-66
2022/08/21 00:21:51;;;;;;;110.95;94.15;;;15.10;99.90;;;;;;5111594;28;20039;-64
2022/08/21 00:24:18;;;;;;;109.90;94.65;;;15.10;99.90;;;;;;5095492;28;20100;-66
2022/08/21 00:26:44;;;;;;;91.35;73.68;;;15.10;99.90;;;;;;5112371;28;20057;-69
2022/08/21 00:29:10;;;;;;;63.10;52.83;;;15.10;99.90;;;;;;5121973;27;20039;-68
2022/08/21 00:31:36;;;;;;;54.72;45.63;;;15.10;99.90;;;;;;5122049;27;20493;-67
2022/08/21 00:34:02;;;;;;;56.03;43.97;;;15.10;99.90;;;;;;5110228;28;20035;-66
2022/08/21 00:36:29;;;;;;;43.13;35.30;;;15.10;99.90;;;;;;5112418;28;20048;-69
2022/08/21 00:38:55;;;;;;;40.10;34.55;;;15.00;99.90;;;;;;5095339;28;20165;-67
2022/08/21 00:41:22;;;;;;;41.38;35.60;;;15.00;99.90;;;;;;5112253;28;20517;-67
2022/08/21 00:43:48;;;;;;;39.30;30.48;;;14.90;99.90;;;;;;5115784;27;20504;-64
2022/08/21 00:46:14;;;;;;;38.05;28.95;;;14.90;99.90;;;;;;5110600;28;20035;-66
2022/08/21 00:48:39;;;;;;;33.30;27.35;;;14.90;99.90;;;;;;5114788;27;20067;-66
2022/08/21 00:51:13;;;;;;;27.42;24.02;;;14.90;99.90;;;;;;5116272;27;20500;-68
2022/08/21 00:53:41;;;;;;;30.85;22.13;;;14.90;99.90;;;;;;5114468;27;20051;-67
2022/08/21 00:56:08;;;;;;;23.33;18.73;;;14.90;99.90;;;;;;5112788;28;20063;-67
2022/08/21 00:58:37;;;;;;;26.55;17.85;;;14.80;99.90;;;;;;5112305;28;20438;-65
2022/08/21 01:01:05;;;;;;;20.08;16.10;;;14.80;99.90;;;;;;5113358;28;20039;-66
2022/08/21 01:03:31;;;;;;;19.25;15.68;;;14.80;99.90;;;;;;5120169;27;20036;-64
2022/08/21 01:05:57;;;;;;;17.45;14.90;;;14.80;99.90;;;;;;5129641;27;20134;-64
2022/08/21 01:08:24;;;;;;;18.00;13.23;;;14.80;99.90;;;;;;5131654;27;20118;-66
2022/08/21 01:10:51;;;;;;;17.80;12.20;;;14.80;99.90;;;;;;5112409;27;20063;-65
2022/08/21 01:13:18;;;;;;;16.50;11.90;;;14.80;99.90;;;;;;5111422;27;20383;-67
2022/08/21 01:15:47;;;;;;;15.48;11.45;;;14.70;99.90;;;;;;5111511;28;20054;-66
2022/08/21 01:18:14;;;;;;;12.90;10.98;;;14.70;99.90;;;;;;5112819;27;20150;-66
2022/08/21 01:20:44;;;;;;;13.63;10.60;;;14.70;99.90;;;;;;5124282;27;20478;-65
2022/08/21 01:23:10;;;;;;;12.60;9.13;;;14.70;99.90;;;;;;5095101;28;20122;-68
2022/08/21 01:25:36;;;;;;;14.55;9.77;;;14.70;99.90;;;;;;5120452;27;20154;-64
2022/08/21 01:28:13;;;;;;;14.32;9.10;;;14.70;99.90;;;;;;5120018;27;20505;-64
2022/08/21 01:30:39;;;;;;;13.73;8.23;;;14.60;99.90;;;;;;5124071;27;20092;-63
2022/08/21 01:33:05;;;;;;;13.70;8.52;;;14.60;99.90;;;;;;5118053;27;20040;-64
2022/08/21 01:35:31;;;;;;;9.38;7.80;;;14.60;99.90;;;;;;5113682;27;20046;-67
2022/08/21 01:37:56;;;;;;;11.60;7.95;;;14.60;99.90;;;;;;5111742;27;20047;-67
2022/08/21 01:40:22;;;;;;;10.13;7.78;;;14.50;99.90;;;;;;5108456;28;20052;-65
2022/08/21 01:42:48;;;;;;;14.68;7.78;;;14.50;99.90;;;;;;5100504;28;20052;-66
2022/08/21 01:45:15;;;;;;;9.82;7.32;;;14.50;99.90;;;;;;5111380;28;20036;-66
2022/08/21 01:47:42;;;;;;;9.48;8.00;;;14.50;99.90;;;;;;5116424;27;20112;-66
2022/08/21 01:50:11;;;;;;;10.93;8.00;;;14.50;99.90;;;;;;5123263;27;20031;-66
2022/08/21 01:52:36;;;;;;;9.50;7.63;;;14.50;99.90;;;;;;5125943;27;20439;-66
2022/08/21 01:55:04;;;;;;;9.07;7.90;;;14.40;99.90;;;;;;5110880;28;20031;-68
2022/08/21 01:57:30;;;;;;;10.02;7.03;;;14.40;99.90;;;;;;5113023;27;20036;-65
2022/08/21 01:59:55;;;;;;;11.02;7.18;;;14.30;99.90;;;;;;5113610;27;20211;-63
2022/08/21 02:02:21;;;;;;;9.57;7.28;;;14.30;99.90;;;;;;5111234;28;20032;-66
2022/08/21 02:04:47;;;;;;;8.30;6.80;;;14.30;99.90;;;;;;5110719;28;20044;-67
2022/08/21 02:07:12;;;;;;;7.53;6.30;;;14.30;99.90;;;;;;5124055;27;20039;-68
2022/08/21 02:09:38;;;;;;;9.63;6.95;;;14.20;99.90;;;;;;5111633;28;20484;-64
2022/08/21 02:12:04;;;;;;;9.10;6.70;;;14.20;99.90;;;;;;5109442;27;20401;-65
2022/08/21 02:14:30;;;;;;;8.88;7.28;;;14.20;99.90;;;;;;5110501;27;20409;-64
2022/08/21 02:16:55;;;;;;;10.18;6.80;;;14.20;99.90;;;;;;5114354;27;20455;-65
2022/08/21 02:19:21;;;;;;;10.90;7.30;;;14.20;99.90;;;;;;5109582;28;20043;-64
2022/08/21 02:21:47;;;;;;;8.98;7.25;;;14.20;99.90;;;;;;5118964;27;20115;-64
2022/08/21 02:24:12;;;;;;;8.50;7.00;;;14.20;99.90;;;;;;5114895;27;20565;-64
2022/08/21 02:26:38;;;;;;;11.15;7.55;;;14.20;99.90;;;;;;5109478;28;20498;-67
2022/08/21 02:29:05;;;;;;;9.43;6.68;;;14.10;99.90;;;;;;5109513;28;20070;-67
2022/08/21 02:31:31;;;;;;;9.75;7.30;;;14.10;99.90;;;;;;5099900;28;20040;-69
2022/08/21 02:33:56;;;;;;;9.25;7.50;;;14.10;99.90;;;;;;5102403;28;20051;-66
2022/08/21 02:36:22;;;;;;;8.77;7.70;;;14.00;99.90;;;;;;5116722;27;20043;-66
2022/08/21 02:38:49;;;;;;;9.88;7.78;;;14.10;99.90;;;;;;5109873;27;20039;-66
2022/08/21 02:41:19;;;;;;;12.68;6.90;;;14.10;99.90;;;;;;5109096;28;20044;-66
2022/08/21 02:43:45;;;;;;;8.50;7.35;;;14.10;99.90;;;;;;5111726;27;20093;-67
2022/08/21 02:46:13;;;;;;;8.70;6.88;;;14.00;99.90;;;;;;5109397;28;21689;-68
2022/08/21 02:48:39;;;;;;;9.32;7.18;;;14.10;99.90;;;;;;5093396;28;20035;-66
2022/08/21 02:51:08;;;;;;;10.07;6.65;;;14.10;99.90;;;;;;5109605;28;20059;-66
2022/08/21 02:53:35;;;;;;;8.27;6.75;;;14.10;99.90;;;;;;5109526;27;20418;-66
2022/08/21 02:56:04;;;;;;;9.90;6.57;;;14.10;99.90;;;;;;5110799;28;20080;-65
2022/08/21 02:58:34;;;;;;;8.98;6.68;;;14.00;99.90;;;;;;5115613;27;20421;-66
2022/08/21 03:00:59;;;;;;;8.40;6.60;;;14.10;99.90;;;;;;5093865;28;20043;-70
2022/08/21 03:03:27;;;;;;;10.75;7.20;;;14.00;99.90;;;;;;5111669;28;20040;-67
2022/08/21 03:05:52;;;;;;;8.98;7.03;;;14.00;99.90;;;;;;5111999;28;20032;-67
2022/08/21 03:08:19;;;;;;;10.00;6.75;;;14.00;99.90;;;;;;5113425;27;20066;-62
2022/08/21 03:10:50;;;;;;;12.75;6.63;;;14.00;99.90;;;;;;5121446;27;20374;-65
2022/08/21 03:13:17;;;;;;;9.32;6.45;;;14.00;99.90;;;;;;5107060;28;20050;-65
2022/08/21 03:15:43;;;;;;;9.95;6.90;;;14.00;99.90;;;;;;5114386;27;20047;-64
2022/08/21 03:18:11;;;;;;;9.35;6.88;;;14.00;99.90;;;;;;5103170;28;20043;-65
2022/08/21 03:20:38;;;;;;;13.02;7.63;;;14.00;99.90;;;;;;5129965;27;20081;-68
2022/08/21 03:23:05;;;;;;;7.75;6.93;;;14.00;99.90;;;;;;5111321;27;20077;-65
2022/08/21 03:25:33;;;;;;;11.38;7.72;;;14.00;99.90;;;;;;5116141;27;20081;-64
2022/08/21 03:27:59;;;;;;;10.75;7.82;;;14.00;99.90;;;;;;5109802;28;20080;-67
2022/08/21 03:30:25;;;;;;;9.95;7.30;;;14.00;99.90;;;;;;5106586;28;20097;-67
2022/08/21 03:32:51;;;;;;;9.52;7.63;;;13.90;99.90;;;;;;5109879;27;20039;-65
2022/08/21 03:35:17;;;;;;;11.00;7.30;;;14.00;99.90;;;;;;5112158;27;20478;-67
2022/08/21 03:37:44;;;;;;;10.55;7.55;;;14.00;99.90;;;;;;5108411;28;20046;-66
2022/08/21 03:40:11;;;;;;;11.25;8.50;;;14.00;99.90;;;;;;5112144;27;20060;-63
2022/08/21 03:42:37;;;;;;;10.20;7.70;;;13.90;99.90;;;;;;5122009;27;20043;-63
2022/08/21 03:45:03;;;;;;;10.98;7.65;;;13.90;99.90;;;;;;5117380;27;20038;-68
2022/08/21 03:47:29;;;;;;;10.43;7.93;;;14.00;99.90;;;;;;5112502;27;20089;-66
2022/08/21 03:49:55;;;;;;;11.05;7.40;;;13.90;99.90;;;;;;5110212;28;20039;-64
2022/08/21 03:52:21;;;;;;;12.65;7.85;;;14.00;99.90;;;;;;5121511;27;20391;-62
2022/08/21 03:54:46;;;;;;;10.55;7.95;;;13.90;99.90;;;;;;5108550;28;20048;-68
2022/08/21 03:57:12;;;;;;;12.65;8.02;;;14.00;99.90;;;;;;5090322;28;20078;-67
2022/08/21 03:59:42;;;;;;;13.38;7.82;;;13.90;99.90;;;;;;5100743;28;20039;-67
2022/08/21 04:02:08;;;;;;;9.23;8.25;;;13.90;99.90;;;;;;5106649;28;20047;-68
2022/08/21 04:04:34;;;;;;;9.18;7.68;;;13.90;99.90;;;;;;5107908;28;20039;-65
2022/08/21 04:07:00;;;;;;;12.43;8.20;;;13.90;99.90;;;;;;5117314;27;20043;-67
2022/08/21 04:09:27;;;;;;;10.75;8.27;;;13.90;99.90;;;;;;5125965;27;20039;-67
2022/08/21 04:11:53;;;;;;;13.45;8.35;;;13.90;99.90;;;;;;5116294;28;20516;-65
2022/08/21 04:14:19;;;;;;;12.05;8.10;;;13.90;99.90;;;;;;5106506;28;21787;-66
2022/08/21 04:16:45;;;;;;;12.88;7.88;;;13.90;99.90;;;;;;5109587;28;20397;-67
2022/08/21 04:19:13;;;;;;;11.75;7.60;;;13.90;99.90;;;;;;5121410;28;20031;-64
2022/08/21 04:21:39;;;;;;;12.40;8.35;;;13.80;99.90;;;;;;5123328;28;20040;-65
2022/08/21 04:24:07;;;;;;;11.55;8.45;;;13.80;99.90;;;;;;5109974;28;21853;-64
2022/08/21 04:26:34;;;;;;;10.60;7.32;;;13.80;99.90;;;;;;5104401;28;20036;-63
2022/08/21 04:29:00;;;;;;;18.40;8.30;;;13.90;99.90;;;;;;5111117;28;20039;-65
2022/08/21 04:31:27;;;;;;;10.45;7.57;;;13.80;99.90;;;;;;5107507;28;20052;-66
2022/08/21 04:33:53;;;;;;;10.52;7.68;;;13.80;99.90;;;;;;5107504;28;20078;-67
2022/08/21 04:36:19;;;;;;;9.00;7.68;;;13.80;99.90;;;;;;5110909;27;20075;-65
2022/08/21 04:38:44;;;;;;;10.20;7.93;;;13.80;99.90;;;;;;5109296;28;20542;-64
2022/08/21 04:41:10;;;;;;;10.73;7.18;;;13.80;99.90;;;;;;5121756;28;20048;-63
2022/08/21 04:43:37;;;;;;;9.65;7.82;;;13.80;99.90;;;;;;5115091;28;20367;-66
2022/08/21 04:46:03;;;;;;;8.75;6.97;;;13.90;99.90;;;;;;5105010;28;20035;-67
2022/08/21 04:48:29;;;;;;;10.82;6.90;;;13.80;99.90;;;;;;5109725;28;20522;-65
2022/08/21 04:50:54;;;;;;;11.63;7.38;;;13.90;99.90;;;;;;5118022;28;20050;-65
2022/08/21 04:53:41;;;;;;;10.35;7.38;;;13.90;99.90;;;;;;5113473;28;20494;-66
2022/08/21 04:56:18;;;;;;;8.70;7.03;;;13.90;99.90;;;;;;5130326;27;20039;-68
2022/08/21 04:58:44;;;;;;;10.43;7.25;;;13.90;99.90;;;;;;5111024;28;20042;-65
2022/08/21 05:01:14;;;;;;;9.85;7.25;;;13.90;99.90;;;;;;5112680;28;20114;-67
2022/08/21 05:03:40;;;;;;;9.30;7.10;;;14.00;99.90;;;;;;5094426;28;20527;-65
2022/08/21 05:06:09;;;;;;;9.48;7.25;;;14.00;99.90;;;;;;5113968;27;20048;-65
2022/08/21 05:08:36;;;;;;;9.23;6.82;;;14.00;99.90;;;;;;5111303;28;20039;-68
2022/08/21 05:11:03;;;;;;;10.88;6.97;;;14.00;99.90;;;;;;5111963;27;20050;-63
2022/08/21 05:13:29;;;;;;;13.73;7.38;;;14.10;99.90;;;;;;5113997;27;20478;-66
2022/08/21 05:15:55;;;;;;;9.30;7.05;;;14.10;99.90;;;;;;5114565;27;20051;-66
2022/08/21 05:18:21;;;;;;;10.13;8.10;;;14.20;99.90;;;;;;5112575;27;20044;-66
2022/08/21 05:20:46;;;;;;;7.93;6.70;;;14.20;99.90;;;;;;5113045;28;20042;-68
2022/08/21 05:23:14;;;;;;;9.05;6.93;;;14.20;99.90;;;;;;5110760;28;20038;-68
2022/08/21 05:25:40;;;;;;;9.02;6.82;;;14.30;99.90;;;;;;5111124;28;20031;-67
2022/08/21 05:28:06;;;;;;;8.77;6.60;;;14.30;99.90;;;;;;5119551;27;20044;-64
2022/08/21 05:30:32;;;;;;;9.45;6.63;;;14.30;99.90;;;;;;5111295;28;20051;-63
2022/08/21 05:32:59;;;;;;;10.80;6.45;;;14.40;99.90;;;;;;5116102;27;20044;-65
2022/08/21 05:35:26;;;;;;;9.38;6.93;;;14.40;99.90;;;;;;5113285;28;20031;-65
2022/08/21 05:37:51;;;;;;;14.02;7.38;;;14.50;99.90;;;;;;5111311;28;20031;-64
2022/08/21 05:40:18;;;;;;;10.25;6.93;;;14.50;99.90;;;;;;5115447;27;20059;-68
2022/08/21 05:42:44;;;;;;;12.15;7.63;;;14.60;99.90;;;;;;5111143;28;20047;-66
2022/08/21 05:45:09;;;;;;;9.80;6.63;;;14.70;99.90;;;;;;5111780;28;20040;-64
2022/08/21 05:47:35;;;;;;;13.90;6.95;;;14.80;99.90;;;;;;5113355;27;20046;-69
2022/08/21 05:50:01;;;;;;;11.52;6.85;;;14.80;99.90;;;;;;5115333;27;20036;-64
2022/08/21 05:52:26;;;;;;;10.02;6.68;;;14.90;99.90;;;;;;5111873;28;20065;-70
2022/08/21 05:54:53;;;;;;;10.70;6.85;;;15.10;99.90;;;;;;5110965;28;20035;-70
2022/08/21 05:57:20;;;;;;;9.35;5.95;;;15.10;99.90;;;;;;5108277;27;20046;-68
2022/08/21 05:59:46;;;;;;;9.35;6.68;;;15.30;99.90;;;;;;5111871;27;20035;-68
2022/08/21 06:02:11;;;;;;;13.52;6.72;;;15.30;99.90;;;;;;5109017;28;20521;-66
2022/08/21 06:04:39;;;;;;;10.63;6.18;;;15.40;99.90;;;;;;5118861;27;20469;-66
2022/08/21 06:07:05;;;;;;;9.40;6.10;;;15.50;99.90;;;;;;5119158;27;20085;-64
2022/08/21 06:09:31;;;;;;;9.65;5.70;;;15.60;99.90;;;;;;5121009;27;20121;-68
2022/08/21 06:11:56;;;;;;;10.05;5.85;;;15.70;99.90;;;;;;5117928;27;20114;-66
2022/08/21 06:14:22;;;;;;;10.15;5.47;;;15.70;99.90;;;;;;5115509;27;20347;-64
2022/08/21 06:16:48;;;;;;;10.27;5.80;;;15.90;99.90;;;;;;5115888;27;20040;-66
2022/08/21 06:19:13;;;;;;;12.00;5.57;;;16.00;99.90;;;;;;5114301;27;20059;-66
2022/08/21 06:21:39;;;;;;;9.88;5.75;;;16.10;99.90;;;;;;5124004;27;20031;-67
2022/08/21 06:24:05;;;;;;;12.98;5.70;;;16.10;99.90;;;;;;5109921;28;20059;-69
2022/08/21 06:26:31;;;;;;;10.93;5.85;;;16.30;99.90;;;;;;5098156;27;20077;-65
2022/08/21 06:28:57;;;;;;;9.90;5.32;;;16.40;99.90;;;;;;5116459;27;20035;-65
2022/08/21 06:31:25;;;;;;;11.50;5.38;;;16.50;99.90;;;;;;5110172;27;20035;-67
2022/08/21 06:33:51;;;;;;;10.10;5.25;;;16.70;99.90;;;;;;5114269;27;20346;-68
2022/08/21 06:36:18;;;;;;;9.00;5.15;;;16.80;99.90;;;;;;5126168;27;20562;-67
2022/08/21 06:38:44;;;;;;;8.85;4.80;;;16.90;99.90;;;;;;5113727;27;20764;-65
2022/08/21 06:41:10;;;;;;;13.30;5.97;;;17.10;99.90;;;;;;5111530;27;20416;-66
2022/08/21 06:43:36;;;;;;;9.43;5.20;;;17.20;99.90;;;;;;5118059;27;20149;-66
2022/08/21 06:46:02;;;;;;;9.52;4.95;;;17.30;99.90;;;;;;5111056;27;20035;-66
2022/08/21 06:48:29;;;;;;;12.15;5.55;;;17.40;99.90;;;;;;5119340;27;20030;-67
2022/08/21 06:50:55;;;;;;;10.40;4.38;;;17.60;99.90;;;;;;5124640;27;20047;-66
2022/08/21 06:53:21;;;;;;;10.80;4.50;;;17.80;99.90;;;;;;5115043;27;20482;-64
2022/08/21 06:55:48;;;;;;;8.93;4.72;;;17.90;99.90;;;;;;5118619;27;20049;-68
2022/08/21 06:58:14;;;;;;;10.20;5.30;;;18.00;99.90;;;;;;5119984;27;20846;-64
2022/08/21 07:00:42;;;;;;;12.70;4.65;;;18.10;99.90;;;;;;5119058;27;20027;-68
2022/08/21 07:03:22;;;;;;;10.48;4.22;;;18.20;99.90;;;;;;5107562;28;20093;-67
2022/08/21 07:05:48;;;;;;;11.85;5.05;;;18.40;99.90;;;;;;5112408;27;20038;-66
2022/08/21 07:08:13;;;;;;;10.25;4.53;;;18.50;99.90;;;;;;5116053;27;20055;-67
2022/08/21 07:10:39;;;;;;;10.52;4.95;;;18.60;99.90;;;;;;5110151;27;20061;-65
2022/08/21 07:13:05;;;;;;;10.25;4.55;;;18.70;99.90;;;;;;5114450;27;20040;-66
2022/08/21 07:15:31;;;;;;;16.27;4.85;;;18.80;99.90;;;;;;5113353;27;20108;-67
2022/08/21 07:18:00;;;;;;;9.68;3.90;;;18.90;99.90;;;;;;5113912;27;20547;-66
2022/08/21 07:20:27;;;;;;;10.95;4.28;;;19.00;99.90;;;;;;5110487;27;20047;-68
2022/08/21 07:22:54;;;;;;;12.10;4.25;;;19.10;99.90;;;;;;5115466;27;20103;-67
2022/08/21 07:25:19;;;;;;;11.20;4.53;;;19.20;99.90;;;;;;5112661;27;20112;-67
2022/08/21 07:27:45;;;;;;;13.82;4.97;;;19.30;99.90;;;;;;5110454;27;20035;-65
2022/08/21 07:30:11;;;;;;;11.05;4.43;;;19.40;99.90;;;;;;5120160;27;20366;-65
2022/08/21 07:32:36;;;;;;;9.65;4.28;;;19.40;99.90;;;;;;5112017;27;20048;-66
2022/08/21 07:35:02;;;;;;;11.88;3.90;;;19.50;99.90;;;;;;5119707;27;20043;-69
2022/08/21 07:37:28;;;;;;;9.10;4.00;;;19.60;99.90;;;;;;5110042;27;20036;-64
2022/08/21 07:39:54;;;;;;;11.68;3.90;;;19.70;99.90;;;;;;5117211;27;20054;-70
2022/08/21 07:42:19;;;;;;;10.57;3.90;;;19.70;99.90;;;;;;5111796;27;20043;-66
2022/08/21 07:44:45;;;;;;;14.90;4.47;;;19.80;99.90;;;;;;5119779;27;20486;-66
2022/08/21 07:47:11;;;;;;;9.45;4.07;;;19.90;99.90;;;;;;5123536;27;20039;-66
2022/08/21 07:49:37;;;;;;;9.70;3.67;;;20.10;99.90;;;;;;5113316;27;20375;-66
2022/08/21 07:52:03;;;;;;;11.07;3.80;;;20.10;99.90;;;;;;5113974;27;20070;-67
2022/08/21 07:54:28;;;;;;;13.07;3.60;;;20.20;99.90;;;;;;5112972;27;20035;-72
2022/08/21 07:56:54;;;;;;;8.73;3.25;;;20.20;99.90;;;;;;5110523;27;20446;-69
2022/08/21 07:59:20;;;;;;;11.60;4.00;;;20.30;99.90;;;;;;5114096;27;20097;-65
2022/08/21 08:01:46;;;;;;;12.18;3.45;;;20.30;99.90;;;;;;5110587;28;20047;-68
2022/08/21 08:04:11;;;;;;;10.20;3.60;;;20.40;99.90;;;;;;5116019;28;20032;-69
2022/08/21 08:06:37;;;;;;;8.90;3.97;;;20.40;99.90;;;;;;5123730;28;20087;-67
2022/08/21 08:09:03;;;;;;;9.00;3.20;;;20.50;99.90;;;;;;5109336;28;20075;-66
2022/08/21 08:11:29;;;;;;;10.93;3.80;;;20.70;99.90;;;;;;5099531;28;20043;-68
2022/08/21 08:13:57;;;;;;;10.85;3.95;;;20.70;99.90;;;;;;5109743;28;20052;-67
2022/08/21 08:16:23;;;;;;;8.15;3.45;;;20.90;99.90;;;;;;5122446;27;20529;-66
2022/08/21 08:18:49;;;;;;;9.02;3.20;;;21.00;99.90;;;;;;5116454;28;20041;-69
2022/08/21 08:21:15;;;;;;;7.45;2.22;;;21.20;99.90;;;;;;5117436;28;20064;-68
2022/08/21 08:23:44;;;;;;;7.45;2.13;;;21.20;99.90;;;;;;5110387;28;20420;-70
2022/08/21 08:26:11;;;;;;;9.60;2.08;;;21.30;99.90;;;;;;5108421;28;20478;-71
2022/08/21 08:28:36;;;;;;;7.57;1.70;;;21.20;99.90;;;;;;5108423;28;20118;-69
2022/08/21 08:31:03;;;;;;;6.13;1.90;;;21.20;99.90;;;;;;5120099;27;20844;-64
2022/08/21 08:33:28;;;;;;;9.98;1.70;;;21.30;99.90;;;;;;5119084;27;20505;-67
2022/08/21 08:35:54;;;;;;;9.10;1.85;;;21.40;99.90;;;;;;5120166;27;20047;-70
2022/08/21 08:38:22;;;;;;;8.13;1.60;;;21.50;99.90;;;;;;5124950;27;20431;-66
2022/08/21 08:41:18;;;;;;;4.50;1.40;;;21.70;99.90;;;;;;5113599;27;20139;-65
2022/08/21 08:43:59;;;;;;;8.60;1.80;;;21.60;99.90;;;;;;5108058;28;20036;-66
2022/08/21 08:46:48;;;;;;;7.53;1.75;;;21.70;99.90;;;;;;5115979;27;20456;-68
2022/08/21 08:49:22;;;;;;;9.05;2.10;;;21.80;99.90;;;;;;5100146;27;20424;-66
2022/08/21 08:51:54;;;;;;;8.43;1.88;;;21.80;99.90;;;;;;5113581;27;20051;-67
2022/08/21 08:54:32;;;;;;;;;;;21.80;99.90;;;;;;5116571;27;20044;-66
2022/08/21 08:57:02;;;;;;;7.75;1.90;;;21.90;99.90;;;;;;5112295;28;19927;-68
2022/08/21 08:59:44;;;;;;;10.85;2.72;;;22.00;99.90;;;;;;5112954;27;20065;-69
2022/08/21 09:02:14;;;;;;;9.63;1.87;;;22.10;99.90;;;;;;5111079;27;20061;-67
2022/08/21 09:04:41;;;;;;;8.02;1.70;;;22.20;99.90;;;;;;5115646;27;20076;-67
2022/08/21 09:07:19;;;;;;;8.10;2.13;;;22.30;99.90;;;;;;5114636;27;20085;-65
2022/08/21 09:10:00;;;;;;;7.10;2.30;;;22.30;99.90;;;;;;5111320;27;20035;-66
2022/08/21 09:12:37;;;;;;;6.95;1.77;;;22.40;99.90;;;;;;5124850;27;20091;-66
2022/08/21 09:15:19;;;;;;;7.45;2.50;;;22.50;99.90;;;;;;5112973;27;20084;-66
2022/08/21 09:17:57;;;;;;;8.40;2.28;;;22.70;99.90;;;;;;5118879;27;20096;-65
2022/08/21 09:20:28;;;;;;;9.68;1.92;;;22.80;99.90;;;;;;5113661;27;20051;-70
2022/08/21 09:22:57;;;;;;;8.65;1.85;;;23.00;99.90;;;;;;5109857;27;20051;-66
2022/08/21 09:25:27;;;;;;;12.23;2.67;;;23.30;99.90;;;;;;5103787;27;20047;-67
2022/08/21 09:27:53;;;;;;;9.10;2.55;;;23.30;99.90;;;;;;5118616;27;20032;-68
2022/08/21 09:30:25;;;;;;;9.02;1.83;;;23.20;99.90;;;;;;5120693;27;20044;-66
2022/08/21 09:32:50;;;;;;;10.32;2.47;;;23.30;99.90;;;;;;5108462;27;20371;-69
2022/08/21 09:35:22;;;;;;;10.15;2.70;;;23.40;99.90;;;;;;5111453;28;20050;-67
2022/08/21 09:38:02;;;;;;;6.13;1.90;;;23.30;99.90;;;;;;5110991;28;20036;-67
2022/08/21 09:40:42;;;;;;;11.60;2.13;;;23.30;99.90;;;;;;5134692;27;20055;-66
2022/08/21 09:43:11;;;;;;;7.03;2.25;;;23.30;99.90;;;;;;5109233;28;20040;-66
2022/08/21 09:45:38;;;;;;;7.05;1.90;;;22.90;99.90;;;;;;5094459;27;20043;-66
2022/08/21 09:48:25;;;;;;;11.07;2.42;;;22.70;99.90;;;;;;5116273;27;20096;-68
2022/08/21 09:50:51;;;;;;;9.90;2.15;;;22.90;99.90;;;;;;5115939;27;20118;-66
2022/08/21 09:53:29;;;;;;;8.40;2.10;;;22.60;99.90;;;;;;5124054;27;20421;-68
2022/08/21 09:58:57;;;;;;;9.23;2.20;;;22.60;99.90;;;;;;5062228;28;20106;-66
2022/08/21 10:01:25;;;;;;;7.95;2.22;;;23.20;99.90;;;;;;5058719;28;20041;-67
2022/08/21 10:04:07;;;;;;;10.70;2.25;;;23.40;99.90;;;;;;5053100;28;20052;-69
2022/08/21 10:06:34;;;;;;;15.07;2.67;;;23.80;99.90;;;;;;5068948;28;20044;-69
2022/08/21 10:09:14;;;;;;;9.18;2.20;;;23.80;99.90;;;;;;5081153;28;20387;-70
2022/08/21 10:11:56;;;;;;;8.77;2.13;;;24.10;99.90;;;;;;5052448;28;20044;-64
2022/08/21 10:14:40;;;;;;;9.02;2.05;;;24.20;99.90;;;;;;5053247;28;20523;-66
2022/08/21 10:17:34;;;;;;;11.23;1.85;;;24.50;99.90;;;;;;5069993;28;20083;-66
2022/08/21 10:20:32;;;;;;;10.05;2.33;;;24.50;99.90;;;;;;5056215;28;20082;-64
2022/08/21 10:23:22;;;;;;;10.43;2.92;;;24.40;99.80;;;;;;4954848;28;20065;-66
2022/08/21 10:25:57;;;;;;;8.13;2.00;;;23.80;99.90;;;;;;4938219;28;20179;-68
2022/08/21 10:28:34;;;;;;;7.93;1.77;;;23.30;99.90;;;;;;4970869;28;20101;-65
2022/08/21 10:31:18;;;;;;;10.55;2.10;;;23.30;99.90;;;;;;4954505;28;20083;-66
2022/08/21 10:34:09;;;;;;;8.27;2.20;;;23.40;99.90;;;;;;4972127;28;20081;-66
2022/08/21 10:36:45;;;;;;;6.43;1.83;;;23.90;99.90;;;;;;4989033;28;20678;-69
2022/08/21 10:39:19;;;;;;;8.43;2.00;;;24.00;99.90;;;;;;5009818;28;20081;-66
2022/08/21 10:42:18;;;;;;;9.85;2.08;;;24.20;99.90;;;;;;4994890;28;20049;-68
2022/08/21 10:44:46;;;;;;;8.00;1.67;;;24.30;99.90;;;;;;4993143;28;20046;-68
2022/08/21 10:47:27;;;;;;;7.55;2.25;;;24.10;99.90;;;;;;5009062;28;20046;-64
2022/08/21 10:50:11;;;;;;;8.95;2.30;;;24.00;99.90;;;;;;5005042;28;20077;-66
2022/08/21 10:52:55;;;;;;;7.13;2.00;;;24.20;99.90;;;;;;4987137;28;20053;-66
2022/08/21 10:55:25;;;;;;;8.55;2.40;;;24.60;99.90;;;;;;5007167;28;20119;-65
2022/08/21 10:58:00;;;;;;;8.65;2.13;;;24.80;99.90;;;;;;4988293;28;20053;-67
2022/08/21 11:00:50;;;;;;;9.02;2.13;;;24.50;99.90;;;;;;5103747;28;20151;-63
2022/08/21 11:03:40;;;;;;;9.90;2.70;;;24.10;99.90;;;;;;5124035;27;20055;-65
2022/08/21 11:06:17;;;;;;;12.40;2.17;;;23.80;99.90;;;;;;5129000;27;20114;-65
2022/08/21 11:08:59;;;;;;;10.93;2.30;;;23.40;99.90;;;;;;5118045;27;20047;-65
2022/08/21 11:12:10;;;;;;;9.55;2.08;;;23.20;99.90;;;;;;5116076;27;20035;-64
2022/08/21 11:15:00;;;;;;;7.75;1.90;;;23.10;99.90;;;;;;5117702;27;20055;-65
2022/08/21 11:18:10;;;;;;;8.75;1.77;;;23.00;99.90;;;;;;5129581;27;20046;-65
2022/08/21 11:20:39;;;;;;;6.80;2.03;;;22.80;99.90;;;;;;5030055;28;20049;-66
2022/08/21 11:23:20;;;;;;;6.22;1.50;;;22.90;99.90;;;;;;5031679;28;20269;-66
2022/08/21 11:25:52;;;;;;;7.47;1.90;;;23.30;99.90;;;;;;5031900;28;20116;-66
2022/08/21 11:28:33;;;;;;;6.32;1.73;;;23.60;99.90;;;;;;5031519;28;20041;-66
2022/08/21 11:31:31;;;;;;;4.68;1.70;;;23.90;99.90;;;;;;5047798;28;20179;-66
2022/08/21 11:34:12;;;;;;;6.03;1.77;;;24.40;99.90;;;;;;5018927;28;20044;-65
2022/08/21 11:37:05;;;;;;;7.07;1.75;;;24.70;99.30;;;;;;5029808;28;20199;-67
2022/08/21 11:40:15;;;;;;;7.25;1.70;;;25.10;98.90;;;;;;5030346;28;20064;-65
2022/08/21 11:43:03;;;;;;;5.40;2.10;;;25.50;98.80;;;;;;4972149;28;20051;-65
2022/08/21 11:45:42;;;;;;;6.53;1.80;;;25.30;96.90;;;;;;4929783;28;20130;-66
2022/08/21 11:48:40;;;;;;;8.50;1.95;;;25.30;97.60;;;;;;4932622;28;20134;-65
2022/08/21 11:51:12;;;;;;;9.07;2.22;;;25.10;97.30;;;;;;4933644;29;20058;-67
2022/08/21 11:54:00;;;;;;;7.13;1.70;;;25.00;97.60;;;;;;4932830;29;20058;-63
2022/08/21 11:56:32;;;;;;;7.38;1.70;;;25.00;97.90;;;;;;4974474;28;20054;-66
2022/08/21 11:59:06;;;;;;;6.30;1.90;;;24.90;97.60;;;;;;4988641;28;20038;-67
2022/08/21 12:01:40;;;;;;;8.00;1.95;;;24.70;97.20;;;;;;4987411;28;20065;-65
2022/08/21 12:04:18;;;;;;;10.70;2.15;;;24.60;97.60;;;;;;4985896;28;20050;-65
2022/08/21 12:06:44;;;;;;;9.00;2.00;;;24.60;98.00;;;;;;4968232;28;20050;-65
2022/08/21 12:09:34;;;;;;;8.48;2.33;;;24.50;98.10;;;;;;4987451;28;20448;-63
2022/08/21 12:12:12;;;;;;;9.75;2.45;;;24.70;98.60;;;;;;4988100;28;20042;-64
2022/08/21 12:14:44;;;;;;;6.20;1.88;;;24.50;98.40;;;;;;5050040;28;20084;-65
2022/08/21 12:17:17;;;;;;;;;;;24.40;98.70;;;;;;5047538;28;20144;-64
2022/08/21 12:19:43;;;;;;;6.97;1.90;;;24.10;96.90;;;;;;5050569;28;20289;-65
2022/08/21 12:22:13;;;;;;;8.18;1.85;;;23.90;97.60;;;;;;5076167;28;20130;-65
2022/08/21 12:24:41;;;;;;;7.97;1.92;;;23.80;98.50;;;;;;5112876;28;20036;-65
2022/08/21 12:27:28;;;;;;;8.52;1.92;;;23.60;98.50;;;;;;5129266;28;20035;-65
2022/08/21 12:30:07;;;;;;;8.25;1.88;;;23.60;99.10;;;;;;5109736;28;20135;-66
2022/08/21 12:32:45;;;;;;;7.97;1.80;;;23.50;98.50;;;;;;5111734;28;20043;-67
2022/08/21 12:35:18;;;;;;;6.88;2.00;;;23.50;98.20;;;;;;5110177;28;20031;-65
2022/08/21 12:37:52;;;;;;;6.95;2.03;;;23.70;98.70;;;;;;5128637;28;20150;-64
2022/08/21 12:40:29;;;;;;;5.50;1.95;;;23.90;98.80;;;;;;5112661;28;20138;-65
2022/08/21 12:42:59;;;;;;;7.78;2.35;;;23.90;98.80;;;;;;5110004;28;20036;-66
2022/08/21 12:45:37;;;;;;;8.02;2.08;;;24.00;98.70;;;;;;5109386;28;20046;-63
2022/08/21 12:48:14;;;;;;;6.10;1.75;;;24.10;98.00;;;;;;5108460;28;20448;-65
2022/08/21 12:51:16;;;;;;;6.75;1.75;;;24.10;98.60;;;;;;5127234;28;20108;-66
2022/08/21 12:53:50;;;;;;;6.07;1.58;;;23.90;98.80;;;;;;5129073;28;20474;-64
2022/08/21 12:56:22;;;;;;;8.77;1.92;;;23.70;99.00;;;;;;5111583;28;20044;-67
2022/08/21 12:58:51;;;;;;;8.35;2.60;;;23.40;99.40;;;;;;5110050;28;20039;-63
2022/08/21 13:01:21;;;;;;;10.60;2.20;;;23.20;99.80;;;;;;5110283;28;20127;-64